createdAt,value
2023-02-03T00:09:19.787Z,98.09
2023-02-03T00:19:22.463Z,98.06
2023-02-03T00:29:26.636Z,96.75
2023-02-03T00:39:29.367Z,96.91
2023-02-03T00:49:33.435Z,96.58
2023-02-03T00:59:36.139Z,96.39
2023-02-03T01:09:40.280Z,95.70
2023-02-03T01:19:42.900Z,96.10
2023-02-03T01:29:46.871Z,95.06
2023-02-03T01:39:49.519Z,94.99
2023-02-03T01:49:59.031Z,94.20
2023-02-03T02:00:03.182Z,93.57
2023-02-03T02:10:08.312Z,94.34
2023-02-03T02:20:39.473Z,93.72
2023-02-03T02:30:58.090Z,93.45
2023-02-03T02:41:08.931Z,91.92
2023-02-03T02:51:15.662Z,92.00
2023-02-03T03:01:20.145Z,90.94
2023-02-03T03:11:24.470Z,89.98
2023-02-03T03:21:35.385Z,89.90
2023-02-03T03:31:38.427Z,89.91
2023-02-03T03:41:49.021Z,89.11
2023-02-03T03:51:57.307Z,89.16
2023-02-03T04:02:04.467Z,88.53
2023-02-03T04:12:14.096Z,88.86
2023-02-03T04:22:18.068Z,88.90
2023-02-03T04:32:20.973Z,88.86
2023-02-03T04:42:25.566Z,89.31
2023-02-03T04:52:28.399Z,89.28
2023-02-03T05:02:32.511Z,89.38
2023-02-03T05:12:35.139Z,89.50
2023-02-03T05:22:39.178Z,89.99
2023-02-03T05:32:41.823Z,89.63
2023-02-03T05:42:50.686Z,90.36
2023-02-03T05:52:54.530Z,89.38
2023-02-03T06:03:02.233Z,89.65
2023-02-03T06:13:10.529Z,89.99
2023-02-03T06:23:17.025Z,90.19
2023-02-03T06:33:20.171Z,89.76
2023-02-03T06:43:24.158Z,91.41
2023-02-03T06:53:26.881Z,91.76
2023-02-03T07:03:30.901Z,91.77
2023-02-03T07:13:33.580Z,90.53
2023-02-03T07:23:37.594Z,90.79
2023-02-03T07:33:40.719Z,92.23
2023-02-03T07:43:44.770Z,92.29
2023-02-03T07:53:47.488Z,89.34
2023-02-03T08:03:53.588Z,90.89
2023-02-03T08:13:56.881Z,90.37
2023-02-03T08:24:00.835Z,90.88
2023-02-03T08:34:03.520Z,91.34
2023-02-03T08:44:07.526Z,92.01
2023-02-03T08:54:10.168Z,91.97
2023-02-03T09:04:14.274Z,91.42
2023-02-03T09:14:16.873Z,91.91
2023-02-03T09:24:20.851Z,90.99
2023-02-03T09:34:23.652Z,89.22
2023-02-03T09:44:35.138Z,88.54
2023-02-03T09:54:44.435Z,86.17
2023-02-03T10:04:57.086Z,86.63
2023-02-03T10:15:17.667Z,84.47
2023-02-03T10:25:26.831Z,81.29
2023-02-03T10:35:36.353Z,80.94
2023-02-03T10:45:40.958Z,79.50
2023-02-03T10:55:45.389Z,78.28
2023-02-03T11:06:04.007Z,78.01
2023-02-03T11:16:10.731Z,75.15
2023-02-03T11:26:18.916Z,74.49
2023-02-03T11:36:21.995Z,54.17
2023-02-03T11:46:26.086Z,52.42
2023-02-03T11:56:36.671Z,64.75
2023-02-03T12:07:00.893Z,63.12
2023-02-03T12:17:26.704Z,59.65
2023-02-03T12:27:44.905Z,63.72
2023-02-03T12:37:56.225Z,60.28
2023-02-03T12:48:06.120Z,65.51
2023-02-03T12:58:12.640Z,66.31
2023-02-03T13:08:24.835Z,64.95
2023-02-03T13:18:32.582Z,60.42
2023-02-03T13:28:53.735Z,57.31
2023-02-03T13:39:21.479Z,56.85
2023-02-03T13:49:29.733Z,51.16
2023-02-03T13:59:42.269Z,61.82
2023-02-03T14:10:06.084Z,63.71
2023-02-03T14:20:42.215Z,59.58
2023-02-03T14:31:10.498Z,62.92
2023-02-03T14:41:20.856Z,66.46
2023-02-03T14:51:33.086Z,68.15
2023-02-03T15:02:11.149Z,71.80
2023-02-03T15:12:26.044Z,71.45
2023-02-03T15:22:31.075Z,71.95
2023-02-03T15:32:39.937Z,74.64
2023-02-03T15:42:53.413Z,76.41
2023-02-03T15:53:01.216Z,78.37
2023-02-03T16:03:07.576Z,77.74
2023-02-03T16:13:24.187Z,78.60
2023-02-03T16:23:29.730Z,80.01
2023-02-03T16:33:51.477Z,81.84
2023-02-03T16:44:11.725Z,82.10
2023-02-03T16:54:18.336Z,82.10
2023-02-03T17:04:20.955Z,82.29
2023-02-03T17:14:25.049Z,82.23
2023-02-03T17:24:27.799Z,82.53
2023-02-03T17:34:32.211Z,82.86
2023-02-03T17:54:56.841Z,82.73
2023-02-03T18:04:59.474Z,84.63
2023-02-03T18:15:03.949Z,84.53
2023-02-03T18:25:09.560Z,85.09
2023-02-03T18:35:16.726Z,84.94
2023-02-03T18:45:19.616Z,83.66
2023-02-03T18:55:23.816Z,84.75
2023-02-03T19:05:26.488Z,83.84
2023-02-03T19:15:30.721Z,83.77
2023-02-03T19:25:33.507Z,82.24
2023-02-03T19:35:38.519Z,83.53
2023-02-03T19:45:41.341Z,83.62
2023-02-03T19:55:46.147Z,83.39
2023-02-03T20:05:48.804Z,83.25
2023-02-03T20:15:53.359Z,83.16
2023-02-03T20:25:56.259Z,84.75
2023-02-03T20:36:00.465Z,84.26
2023-02-03T20:46:03.433Z,84.58
2023-02-03T20:56:14.281Z,83.99
2023-02-03T21:06:18.697Z,84.88
2023-02-03T21:16:26.077Z,84.32
2023-02-03T21:26:30.037Z,84.68
2023-02-03T21:36:36.578Z,84.23
2023-02-03T21:46:39.864Z,85.15
2023-02-03T21:56:45.308Z,86.21
2023-02-03T22:06:50.008Z,86.54
2023-02-03T22:16:54.032Z,86.61
2023-02-03T22:27:00.207Z,88.25
2023-02-03T22:37:04.207Z,87.99
2023-02-03T22:47:07.291Z,88.06
2023-02-03T22:57:11.343Z,85.55
2023-02-03T23:07:14.394Z,85.93
2023-02-03T23:17:18.513Z,87.55
2023-02-03T23:27:21.217Z,90.81
2023-02-03T23:37:25.254Z,92.88
2023-02-03T23:47:27.865Z,93.31
2023-02-03T23:57:31.902Z,93.36
